Time;durP1;ratioP1;P1;durP2;ratioP2;P2;SDS_P1;SDS_P2;PMS_P1;PMS_P2;Temp;Humidity;BMP_temperature;BMP_pressure;BME280_temperature;BME280_humidity;BME280_pressure;Samples;Min_cycle;Max_cycle;Signal;HPM_P1;HPM_P2
2022/03/22 00:00:39;;;;;;;48.20;29.30;;;;;;;;;;4998250;28;20348;-71
2022/03/22 00:03:05;;;;;;;47.95;29.02;;;;;;;;;;4999765;28;20064;-71
2022/03/22 00:05:31;;;;;;;48.13;29.25;;;;;;;;;;5016444;28;20070;-71
2022/03/22 00:08:01;;;;;;;50.05;29.63;;;;;;;;;;5017169;28;20035;-71
2022/03/22 00:10:26;;;;;;;51.53;29.90;;;;;;;;;;5017399;28;20155;-71
2022/03/22 00:12:54;;;;;;;50.30;31.17;;;;;;;;;;5017127;28;20043;-71
2022/03/22 00:15:19;;;;;;;48.88;30.67;;;;;;;;;;5016223;28;20125;-70
2022/03/22 00:17:47;;;;;;;53.50;30.15;;;;;;;;;;5001151;28;20461;-70
2022/03/22 00:20:12;;;;;;;54.75;31.60;;;;;;;;;;5016760;28;20642;-71
2022/03/22 00:22:40;;;;;;;50.88;31.45;;;;;;;;;;5016935;28;20025;-71
2022/03/22 00:25:06;;;;;;;53.80;32.22;;;;;;;;;;4999111;28;20119;-71
2022/03/22 00:30:20;;;;;;;55.10;31.85;;;;;;;;;;5016608;28;20060;-71
2022/03/22 00:32:52;;;;;;;56.88;33.03;;;;;;;;;;5016562;28;20751;-71
2022/03/22 00:35:18;;;;;;;54.60;32.60;;;;;;;;;;5017287;28;20082;-72
2022/03/22 00:37:49;;;;;;;56.13;32.70;;;;;;;;;;5016182;28;20049;-72
2022/03/22 00:40:18;;;;;;;61.35;35.63;;;;;;;;;;5016004;28;22031;-72
2022/03/22 00:42:46;;;;;;;55.60;35.38;;;;;;;;;;5016351;28;20029;-72
2022/03/22 00:45:17;;;;;;;57.80;36.78;;;;;;;;;;5016371;28;20793;-73
2022/03/22 00:47:45;;;;;;;68.68;40.65;;;;;;;;;;5015093;28;20029;-72
2022/03/22 00:50:12;;;;;;;66.55;40.90;;;;;;;;;;5016469;28;20017;-72
2022/03/22 00:52:40;;;;;;;67.32;39.53;;;;;;;;;;5016724;28;20094;-71
2022/03/22 00:55:06;;;;;;;65.55;38.95;;;;;;;;;;5016615;28;20783;-72
2022/03/22 00:57:33;;;;;;;67.38;39.65;;;;;;;;;;5016632;28;20095;-72
2022/03/22 01:00:02;;;;;;;65.97;37.45;;;;;;;;;;4997780;28;20564;-72
2022/03/22 01:02:28;;;;;;;63.65;37.65;;;;;;;;;;5005416;28;20184;-73
2022/03/22 01:04:57;;;;;;;66.18;37.35;;;;;;;;;;5015290;28;20138;-73
2022/03/22 01:07:23;;;;;;;66.22;38.20;;;;;;;;;;5016416;28;20121;-72
2022/03/22 01:09:48;;;;;;;67.75;37.97;;;;;;;;;;5016655;28;20080;-72
2022/03/22 01:12:16;;;;;;;67.10;37.35;;;;;;;;;;5016458;28;20086;-72
2022/03/22 01:14:42;;;;;;;76.22;38.47;;;;;;;;;;5015689;28;20029;-72
2022/03/22 01:17:08;;;;;;;69.05;38.72;;;;;;;;;;5014389;28;20940;-71
2022/03/22 01:19:35;;;;;;;68.85;36.78;;;;;;;;;;5016884;28;20209;-72
2022/03/22 01:22:01;;;;;;;68.90;37.65;;;;;;;;;;4998302;28;20496;-72
2022/03/22 01:24:29;;;;;;;66.20;38.42;;;;;;;;;;5000987;28;20099;-71
2022/03/22 01:26:56;;;;;;;66.63;37.95;;;;;;;;;;5015850;28;20055;-71
2022/03/22 01:29:22;;;;;;;68.93;40.03;;;;;;;;;;5015924;28;20036;-72
2022/03/22 01:31:50;;;;;;;65.72;38.15;;;;;;;;;;5016119;28;20586;-72
2022/03/22 01:34:15;;;;;;;69.32;38.80;;;;;;;;;;4998344;28;20608;-71
2022/03/22 01:36:41;;;;;;;66.57;37.50;;;;;;;;;;4987482;28;20106;-72
2022/03/22 01:39:07;;;;;;;62.70;37.50;;;;;;;;;;4999763;28;20621;-71
2022/03/22 01:41:32;;;;;;;64.57;37.67;;;;;;;;;;5000654;28;20108;-71
2022/03/22 01:44:00;;;;;;;65.80;38.40;;;;;;;;;;5014661;28;20069;-71
2022/03/22 01:46:27;;;;;;;72.15;38.72;;;;;;;;;;5016992;28;20176;-72
2022/03/22 01:48:53;;;;;;;68.75;39.63;;;;;;;;;;5015788;28;20434;-71
2022/03/22 01:51:21;;;;;;;71.57;39.90;;;;;;;;;;5019242;28;20052;-71
2022/03/22 01:53:47;;;;;;;71.55;40.95;;;;;;;;;;5019788;28;20091;-71
2022/03/22 01:56:13;;;;;;;70.88;39.95;;;;;;;;;;5003859;28;20025;-71
2022/03/22 01:58:39;;;;;;;72.60;41.13;;;;;;;;;;5001723;28;20388;-71
2022/03/22 02:06:33;;;;;;;66.60;38.00;;;;;;;;;;5020335;28;20090;-71
2022/03/22 02:08:58;;;;;;;73.53;39.47;;;;;;;;;;5018631;28;20055;-71
2022/03/22 02:11:26;;;;;;;68.22;38.50;;;;;;;;;;5001847;28;20523;-71
2022/03/22 02:13:51;;;;;;;65.40;38.13;;;;;;;;;;5020278;28;20518;-71
2022/03/22 02:16:20;;;;;;;67.00;37.80;;;;;;;;;;5019632;28;20140;-71
2022/03/22 02:18:49;;;;;;;64.45;37.88;;;;;;;;;;5019865;28;20051;-71
2022/03/22 02:21:18;;;;;;;59.38;35.67;;;;;;;;;;5019363;28;20055;-71
2022/03/22 02:23:46;;;;;;;69.50;38.92;;;;;;;;;;5019109;28;20032;-71
2022/03/22 02:26:11;;;;;;;62.72;36.75;;;;;;;;;;5018047;28;20075;-71
2022/03/22 02:28:37;;;;;;;65.43;36.42;;;;;;;;;;5019548;28;20045;-71
2022/03/22 02:31:04;;;;;;;65.60;36.88;;;;;;;;;;5019668;28;20037;-71
2022/03/22 02:33:30;;;;;;;67.28;38.33;;;;;;;;;;5007635;28;20033;-71
2022/03/22 02:35:57;;;;;;;69.35;39.10;;;;;;;;;;5018918;28;20052;-71
2022/03/22 02:38:27;;;;;;;70.35;39.60;;;;;;;;;;5018857;28;20403;-71
2022/03/22 02:40:52;;;;;;;69.15;39.40;;;;;;;;;;5018931;28;20041;-71
2022/03/22 02:43:18;;;;;;;71.88;40.97;;;;;;;;;;5006314;28;20311;-71
2022/03/22 02:45:44;;;;;;;66.35;39.75;;;;;;;;;;5019010;28;20029;-71
2022/03/22 02:48:11;;;;;;;68.18;38.45;;;;;;;;;;5000333;28;20018;-71
2022/03/22 02:50:39;;;;;;;66.55;38.03;;;;;;;;;;5018923;28;20082;-71
2022/03/22 02:53:07;;;;;;;67.20;38.38;;;;;;;;;;5019386;28;20036;-71
2022/03/22 02:55:35;;;;;;;66.68;38.78;;;;;;;;;;5001588;28;20439;-71
2022/03/22 02:58:03;;;;;;;71.00;38.33;;;;;;;;;;5018995;28;20542;-71
2022/03/22 03:00:29;;;;;;;68.10;38.42;;;;;;;;;;5019274;28;20273;-71
2022/03/22 03:02:54;;;;;;;62.67;38.53;;;;;;;;;;5018306;28;20438;-71
2022/03/22 03:05:21;;;;;;;63.80;36.92;;;;;;;;;;5018703;28;20457;-71
2022/03/22 03:07:47;;;;;;;63.55;36.85;;;;;;;;;;5006433;28;20422;-71
2022/03/22 03:10:13;;;;;;;62.22;37.35;;;;;;;;;;5018922;28;20349;-71
2022/03/22 03:12:39;;;;;;;68.60;37.85;;;;;;;;;;5017800;28;20033;-72
2022/03/22 03:15:06;;;;;;;72.85;38.63;;;;;;;;;;5002578;28;20028;-71
2022/03/22 03:17:34;;;;;;;72.55;39.33;;;;;;;;;;5005581;28;20028;-71
2022/03/22 03:20:01;;;;;;;70.85;39.58;;;;;;;;;;5018347;28;20240;-71
2022/03/22 03:22:27;;;;;;;74.13;38.05;;;;;;;;;;5017556;28;20132;-71
2022/03/22 03:24:52;;;;;;;69.60;38.08;;;;;;;;;;5018488;28;20552;-71
2022/03/22 03:27:18;;;;;;;69.13;38.63;;;;;;;;;;5017772;28;20033;-72
2022/03/22 03:29:46;;;;;;;69.30;38.70;;;;;;;;;;5018227;28;20033;-71
2022/03/22 03:32:11;;;;;;;73.78;40.20;;;;;;;;;;5004868;28;20045;-72
2022/03/22 03:34:37;;;;;;;71.55;39.83;;;;;;;;;;5018324;28;20352;-71
2022/03/22 03:37:02;;;;;;;71.93;40.38;;;;;;;;;;5017863;28;20041;-71
2022/03/22 03:39:30;;;;;;;72.68;40.00;;;;;;;;;;5017343;28;20119;-71
2022/03/22 03:42:00;;;;;;;71.53;38.75;;;;;;;;;;5017937;28;20029;-71
2022/03/22 03:47:14;;;;;;;70.95;40.10;;;;;;;;;;5018137;28;20112;-71
2022/03/22 03:49:39;;;;;;;72.30;40.60;;;;;;;;;;5017855;28;20101;-71
2022/03/22 03:52:06;;;;;;;72.30;40.38;;;;;;;;;;5016890;28;20041;-71
2022/03/22 03:54:34;;;;;;;76.53;42.00;;;;;;;;;;5017914;28;20120;-71
2022/03/22 03:57:02;;;;;;;71.22;42.15;;;;;;;;;;5017075;28;20040;-72
2022/03/22 03:59:28;;;;;;;73.22;40.05;;;;;;;;;;4999674;28;20033;-71
2022/03/22 04:01:54;;;;;;;77.18;41.55;;;;;;;;;;4990872;28;20061;-71
2022/03/22 04:04:19;;;;;;;80.18;43.50;;;;;;;;;;4999788;28;20111;-71
2022/03/22 04:06:48;;;;;;;76.45;42.25;;;;;;;;;;5016722;28;20029;-71
2022/03/22 04:09:17;;;;;;;74.22;41.95;;;;;;;;;;5017118;28;20357;-72
2022/03/22 04:11:43;;;;;;;82.10;44.85;;;;;;;;;;5017176;28;20045;-71
2022/03/22 04:14:11;;;;;;;82.32;43.28;;;;;;;;;;5017031;28;20028;-71
2022/03/22 04:16:40;;;;;;;82.00;42.38;;;;;;;;;;4999409;28;20029;-71
2022/03/22 04:19:08;;;;;;;76.57;42.85;;;;;;;;;;5018017;28;20036;-72
2022/03/22 04:21:40;;;;;;;79.90;43.92;;;;;;;;;;5017116;28;20029;-72
2022/03/22 04:24:07;;;;;;;78.78;43.95;;;;;;;;;;4999901;28;20048;-71
2022/03/22 04:26:36;;;;;;;87.32;46.42;;;;;;;;;;5017482;28;20540;-71
2022/03/22 04:34:34;;;;;;;84.30;46.88;;;;;;;;;;5016624;28;20447;-71
2022/03/22 04:37:00;;;;;;;86.90;47.20;;;;;;;;;;5017164;28;20052;-71
2022/03/22 04:39:31;;;;;;;89.68;48.85;;;;;;;;;;5016587;28;20024;-71
2022/03/22 04:41:57;;;;;;;87.20;47.85;;;;;;;;;;5017086;28;20108;-70
2022/03/22 04:44:23;;;;;;;88.45;47.85;;;;;;;;;;5016447;28;20025;-71
2022/03/22 04:46:48;;;;;;;85.57;46.97;;;;;;;;;;5000617;28;20511;-71
2022/03/22 04:49:16;;;;;;;90.70;48.05;;;;;;;;;;5016264;28;20516;-70
2022/03/22 04:57:12;;;;;;;95.30;52.33;;;;;;;;;;5017143;28;20049;-72
2022/03/22 04:59:37;;;;;;;92.07;51.13;;;;;;;;;;5016652;28;20041;-72
2022/03/22 05:02:06;;;;;;;92.55;51.88;;;;;;;;;;5006591;28;20085;-71
2022/03/22 05:04:31;;;;;;;93.28;51.88;;;;;;;;;;4988094;28;20709;-71
2022/03/22 05:06:57;;;;;;;85.18;48.70;;;;;;;;;;5017070;28;20025;-71
2022/03/22 05:09:22;;;;;;;88.00;49.75;;;;;;;;;;4998641;28;20075;-71
2022/03/22 05:11:48;;;;;;;88.60;49.53;;;;;;;;;;5015751;28;20049;-72
2022/03/22 05:14:14;;;;;;;80.30;48.78;;;;;;;;;;5016196;28;20381;-72
2022/03/22 05:16:40;;;;;;;83.50;48.65;;;;;;;;;;4997665;28;20029;-72
2022/03/22 05:19:08;;;;;;;81.03;47.45;;;;;;;;;;5016107;28;20255;-71
2022/03/22 05:21:36;;;;;;;84.65;48.17;;;;;;;;;;5016141;28;20048;-72
2022/03/22 05:24:02;;;;;;;79.55;47.08;;;;;;;;;;5016322;28;20024;-72
2022/03/22 05:26:27;;;;;;;89.18;49.50;;;;;;;;;;5015985;28;20650;-71
2022/03/22 05:28:53;;;;;;;83.60;47.10;;;;;;;;;;4997590;28;20045;-72
2022/03/22 05:31:21;;;;;;;80.72;46.67;;;;;;;;;;5015971;28;20033;-72
2022/03/22 05:33:47;;;;;;;86.97;47.60;;;;;;;;;;5016258;28;20147;-72
2022/03/22 05:36:12;;;;;;;92.10;50.00;;;;;;;;;;4998205;28;20033;-71
2022/03/22 05:38:38;;;;;;;88.55;49.60;;;;;;;;;;5015924;28;20033;-71
2022/03/22 05:41:04;;;;;;;87.40;49.53;;;;;;;;;;5015531;28;20041;-71
2022/03/22 05:43:30;;;;;;;86.50;47.10;;;;;;;;;;5017132;28;20135;-71
2022/03/22 05:45:56;;;;;;;85.10;48.30;;;;;;;;;;5017201;28;20045;-71
2022/03/22 05:48:24;;;;;;;85.47;49.35;;;;;;;;;;5015048;28;20121;-72
2022/03/22 05:50:50;;;;;;;83.70;49.78;;;;;;;;;;5015592;28;20508;-71
2022/03/22 05:53:15;;;;;;;87.43;49.50;;;;;;;;;;5003309;28;20556;-71
2022/03/22 05:55:41;;;;;;;84.68;49.92;;;;;;;;;;4998593;28;20033;-72
2022/03/22 05:58:07;;;;;;;89.57;50.35;;;;;;;;;;5014618;28;20033;-72
2022/03/22 06:00:34;;;;;;;84.22;51.38;;;;;;;;;;5016680;28;20502;-71
2022/03/22 06:03:05;;;;;;;84.50;49.35;;;;;;;;;;4997956;28;20057;-72
2022/03/22 06:05:33;;;;;;;90.55;50.83;;;;;;;;;;5016741;28;20260;-72
2022/03/22 06:08:01;;;;;;;91.93;50.17;;;;;;;;;;5014131;28;20045;-72
2022/03/22 06:10:29;;;;;;;89.88;51.17;;;;;;;;;;4998200;28;20021;-72
2022/03/22 06:12:55;;;;;;;87.93;50.35;;;;;;;;;;5013389;28;20064;-72
2022/03/22 06:15:24;;;;;;;88.18;50.03;;;;;;;;;;5015095;28;20028;-72
2022/03/22 06:17:56;;;;;;;85.30;50.77;;;;;;;;;;4999066;28;20052;-72
2022/03/22 06:20:26;;;;;;;88.70;50.97;;;;;;;;;;5014095;28;20025;-72
2022/03/22 06:22:52;;;;;;;93.22;50.10;;;;;;;;;;5016256;28;20102;-71
2022/03/22 06:25:18;;;;;;;89.28;50.15;;;;;;;;;;4997782;28;20225;-71
2022/03/22 06:27:44;;;;;;;83.90;49.00;;;;;;;;;;5015989;28;20075;-70
2022/03/22 06:30:15;;;;;;;88.82;50.15;;;;;;;;;;5015376;28;20276;-71
2022/03/22 06:32:45;;;;;;;88.05;49.50;;;;;;;;;;4999879;28;20580;-71
2022/03/22 06:35:11;;;;;;;90.00;49.63;;;;;;;;;;5015697;28;20559;-70
2022/03/22 06:37:38;;;;;;;86.63;50.45;;;;;;;;;;5016750;28;20029;-70
2022/03/22 06:40:07;;;;;;;84.63;50.40;;;;;;;;;;5006794;28;20129;-70
2022/03/22 06:42:33;;;;;;;82.70;49.22;;;;;;;;;;5000936;28;20024;-70
2022/03/22 06:45:01;;;;;;;88.03;49.63;;;;;;;;;;5017933;28;20562;-70
2022/03/22 06:47:26;;;;;;;81.07;48.95;;;;;;;;;;5015220;28;20029;-70
2022/03/22 06:49:52;;;;;;;86.20;49.85;;;;;;;;;;5018512;28;20037;-71
2022/03/22 06:52:19;;;;;;;82.28;50.08;;;;;;;;;;5019148;28;20503;-70
2022/03/22 06:54:47;;;;;;;81.10;49.30;;;;;;;;;;5018888;28;20391;-70
2022/03/22 06:57:13;;;;;;;78.60;48.67;;;;;;;;;;5019488;28;20032;-70
2022/03/22 06:59:38;;;;;;;79.57;47.92;;;;;;;;;;5006910;28;20071;-69
2022/03/22 07:02:07;;;;;;;83.20;48.30;;;;;;;;;;5001946;28;20496;-70
2022/03/22 07:04:33;;;;;;;79.53;47.13;;;;;;;;;;5000286;28;20045;-69
2022/03/22 07:07:01;;;;;;;83.15;46.83;;;;;;;;;;5018343;28;21856;-69
2022/03/22 07:09:31;;;;;;;79.28;47.05;;;;;;;;;;5017979;28;20033;-71
2022/03/22 07:11:58;;;;;;;79.57;47.25;;;;;;;;;;5018345;28;20049;-69
2022/03/22 07:14:24;;;;;;;79.50;46.63;;;;;;;;;;5016856;28;20206;-70
2022/03/22 07:16:53;;;;;;;72.88;45.85;;;;;;;;;;5017976;28;20135;-70
2022/03/22 07:19:20;;;;;;;69.88;45.90;;;;;;;;;;5001128;28;20124;-70
2022/03/22 07:21:50;;;;;;;67.97;44.97;;;;;;;;;;5007636;28;20082;-69
2022/03/22 07:24:19;;;;;;;68.25;44.33;;;;;;;;;;5018202;28;20037;-69
2022/03/22 07:26:48;;;;;;;63.80;42.80;;;;;;;;;;5018301;28;22244;-70
2022/03/22 07:29:13;;;;;;;69.30;44.08;;;;;;;;;;5017397;28;20038;-70
2022/03/22 07:31:40;;;;;;;67.32;42.92;;;;;;;;;;4999913;28;20035;-71
2022/03/22 07:34:15;;;;;;;65.57;42.85;;;;;;;;;;5017843;28;20599;-71
2022/03/22 07:36:44;;;;;;;61.72;41.10;;;;;;;;;;5017486;28;20025;-71
2022/03/22 07:39:10;;;;;;;61.70;40.38;;;;;;;;;;5018058;28;20032;-71
2022/03/22 07:41:39;;;;;;;64.78;39.00;;;;;;;;;;5018309;28;20029;-70
2022/03/22 07:44:12;;;;;;;58.33;38.35;;;;;;;;;;5016230;28;20438;-70
2022/03/22 07:46:38;;;;;;;58.58;37.33;;;;;;;;;;5017473;28;20117;-69
2022/03/22 07:54:42;;;;;;;51.83;35.73;;;;;;;;;;4987389;28;20567;-70
2022/03/22 07:57:10;;;;;;;51.95;36.35;;;;;;;;;;5017209;28;20283;-70
2022/03/22 07:59:38;;;;;;;58.88;37.22;;;;;;;;;;5016949;28;20033;-70
2022/03/22 08:02:04;;;;;;;48.75;36.63;;;;;;;;;;4980117;28;20112;-70
2022/03/22 08:04:30;;;;;;;56.58;36.25;;;;;;;;;;4997867;28;20056;-70
2022/03/22 08:06:56;;;;;;;53.03;37.60;;;;;;;;;;4998526;28;20120;-70
2022/03/22 08:09:23;;;;;;;50.15;33.85;;;;;;;;;;4980476;28;20159;-70
2022/03/22 08:11:51;;;;;;;57.83;35.33;;;;;;;;;;4997662;28;20034;-70
2022/03/22 08:14:17;;;;;;;52.50;35.03;;;;;;;;;;4997922;28;20029;-68
2022/03/22 08:16:43;;;;;;;51.58;33.83;;;;;;;;;;4987523;28;20548;-71
2022/03/22 08:19:08;;;;;;;52.85;34.42;;;;;;;;;;4998509;28;20040;-70
2022/03/22 08:21:34;;;;;;;56.45;34.60;;;;;;;;;;4987675;28;20028;-70
2022/03/22 08:24:02;;;;;;;55.08;35.15;;;;;;;;;;4982291;28;20323;-70
2022/03/22 08:26:28;;;;;;;47.95;34.33;;;;;;;;;;4997747;28;20287;-69
2022/03/22 08:28:56;;;;;;;53.35;33.17;;;;;;;;;;4981521;28;20413;-70
2022/03/22 08:31:24;;;;;;;46.17;34.17;;;;;;;;;;4997409;28;20033;-70
2022/03/22 08:33:53;;;;;;;45.65;34.38;;;;;;;;;;4997833;28;20095;-70
2022/03/22 08:36:21;;;;;;;47.00;32.70;;;;;;;;;;4965565;28;20673;-70
2022/03/22 08:38:48;;;;;;;44.13;32.10;;;;;;;;;;4983697;28;20128;-70
2022/03/22 08:41:14;;;;;;;45.50;32.10;;;;;;;;;;4997264;28;20462;-69
2022/03/22 08:43:40;;;;;;;44.33;31.67;;;;;;;;;;4996847;28;20065;-70
2022/03/22 08:46:05;;;;;;;46.92;32.22;;;;;;;;;;4979530;28;20033;-70
2022/03/22 08:48:30;;;;;;;46.67;32.38;;;;;;;;;;4984867;28;20033;-72
2022/03/22 08:50:57;;;;;;;43.20;32.33;;;;;;;;;;4996713;28;20096;-69
2022/03/22 08:53:23;;;;;;;42.03;30.23;;;;;;;;;;4995495;28;20045;-68
2022/03/22 08:55:49;;;;;;;40.50;31.08;;;;;;;;;;4981218;28;20499;-66
2022/03/22 08:58:16;;;;;;;37.88;30.05;;;;;;;;;;4980501;28;20025;-66
2022/03/22 09:00:41;;;;;;;39.88;30.05;;;;;;;;;;4994600;28;20044;-69
2022/03/22 09:03:11;;;;;;;40.25;29.65;;;;;;;;;;5015735;28;20049;-68
2022/03/22 09:08:21;;;;;;;40.53;29.60;;;;;;;;;;5016685;28;20257;-65
2022/03/22 09:10:52;;;;;;;39.88;29.73;;;;;;;;;;4992976;28;20039;-65
2022/03/22 09:13:18;;;;;;;41.85;29.02;;;;;;;;;;5015547;28;20123;-65
2022/03/22 09:15:48;;;;;;;38.47;28.38;;;;;;;;;;5015632;28;20060;-65
2022/03/22 09:18:21;;;;;;;42.13;29.30;;;;;;;;;;5015987;28;20052;-65
2022/03/22 09:20:47;;;;;;;39.53;27.90;;;;;;;;;;5015773;28;20097;-65
2022/03/22 09:23:12;;;;;;;41.58;29.65;;;;;;;;;;5014893;28;20097;-66
2022/03/22 09:25:39;;;;;;;41.88;28.30;;;;;;;;;;5016592;28;20148;-66
2022/03/22 09:28:05;;;;;;;39.83;28.38;;;;;;;;;;5014618;28;20029;-65
2022/03/22 09:30:34;;;;;;;40.15;29.13;;;;;;;;;;4998863;28;20120;-67
2022/03/22 09:33:01;;;;;;;40.53;29.55;;;;;;;;;;5015433;28;20029;-66
2022/03/22 09:35:27;;;;;;;41.13;29.90;;;;;;;;;;5015334;28;20132;-64
2022/03/22 09:37:53;;;;;;;39.35;29.58;;;;;;;;;;5015986;28;20029;-65
2022/03/22 09:40:19;;;;;;;42.55;28.73;;;;;;;;;;5015597;28;20079;-66
2022/03/22 09:42:48;;;;;;;38.92;28.73;;;;;;;;;;4995163;28;20048;-65
2022/03/22 09:45:15;;;;;;;44.08;29.67;;;;;;;;;;4998010;28;20056;-65
2022/03/22 09:47:41;;;;;;;40.95;28.75;;;;;;;;;;5014559;28;20617;-65
2022/03/22 09:50:08;;;;;;;38.60;29.25;;;;;;;;;;5015762;28;20028;-65
2022/03/22 09:52:34;;;;;;;45.75;29.33;;;;;;;;;;4999390;28;20067;-65
2022/03/22 09:55:00;;;;;;;40.05;28.80;;;;;;;;;;5013333;28;20059;-65
2022/03/22 09:57:26;;;;;;;43.97;28.90;;;;;;;;;;5014763;28;20017;-65
2022/03/22 09:59:54;;;;;;;41.50;28.25;;;;;;;;;;5014578;28;20033;-66
2022/03/22 10:02:26;;;;;;;35.85;27.67;;;;;;;;;;5000201;28;20149;-63
2022/03/22 10:04:52;;;;;;;41.38;29.45;;;;;;;;;;5015781;28;20029;-65
2022/03/22 10:07:20;;;;;;;35.95;27.88;;;;;;;;;;5015554;28;20029;-64
2022/03/22 10:09:53;;;;;;;36.33;26.23;;;;;;;;;;5016209;28;20386;-66
2022/03/22 10:12:32;;;;;;;37.08;25.92;;;;;;;;;;5018420;28;20024;-64
2022/03/22 10:15:10;;;;;;;37.15;24.35;;;;;;;;;;5018992;28;20049;-63
2022/03/22 10:17:36;;;;;;;31.85;24.58;;;;;;;;;;5017603;28;20433;-64
2022/03/22 10:20:05;;;;;;;34.05;24.55;;;;;;;;;;5018165;28;20025;-65
2022/03/22 10:22:34;;;;;;;31.52;24.35;;;;;;;;;;5018110;28;20223;-65
2022/03/22 10:25:01;;;;;;;34.33;23.73;;;;;;;;;;5019446;28;20073;-64
2022/03/22 10:27:26;;;;;;;33.88;23.73;;;;;;;;;;5001974;28;20036;-64
2022/03/22 10:29:53;;;;;;;32.65;23.45;;;;;;;;;;5018489;28;20064;-65
2022/03/22 10:32:28;;;;;;;34.10;25.15;;;;;;;;;;5019653;28;20033;-64
2022/03/22 10:34:53;;;;;;;34.88;24.15;;;;;;;;;;5006758;28;20535;-64
2022/03/22 10:37:26;;;;;;;30.27;21.77;;;;;;;;;;5001650;28;20095;-66
2022/03/22 10:39:52;;;;;;;34.55;22.83;;;;;;;;;;5018573;28;20052;-64
2022/03/22 10:42:22;;;;;;;31.05;22.95;;;;;;;;;;5019331;28;20437;-65
2022/03/22 10:44:50;;;;;;;29.88;21.80;;;;;;;;;;5018151;28;20403;-65
2022/03/22 10:47:24;;;;;;;31.70;20.90;;;;;;;;;;4986748;28;20080;-65
2022/03/22 10:50:02;;;;;;;29.08;20.45;;;;;;;;;;5018224;28;20086;-65
2022/03/22 10:52:29;;;;;;;34.88;21.67;;;;;;;;;;4999911;28;20110;-65
2022/03/22 10:54:56;;;;;;;38.38;25.13;;;;;;;;;;5017650;28;20144;-64
2022/03/22 10:57:29;;;;;;;39.70;26.60;;;;;;;;;;5017202;28;20029;-65
2022/03/22 10:59:55;;;;;;;39.00;24.88;;;;;;;;;;5018065;28;20056;-66
2022/03/22 11:02:22;;;;;;;38.63;24.88;;;;;;;;;;4999005;28;20057;-65
2022/03/22 11:04:48;;;;;;;38.10;25.38;;;;;;;;;;5017932;28;20037;-66
2022/03/22 11:07:15;;;;;;;41.33;24.70;;;;;;;;;;5017917;28;20600;-66
2022/03/22 11:09:43;;;;;;;41.55;26.38;;;;;;;;;;5017085;28;20029;-65
2022/03/22 11:12:10;;;;;;;42.13;25.10;;;;;;;;;;5017301;28;20161;-65
2022/03/22 11:14:36;;;;;;;37.78;26.33;;;;;;;;;;5016665;28;20665;-65
2022/03/22 11:17:03;;;;;;;35.60;24.88;;;;;;;;;;5017134;28;20406;-65
2022/03/22 11:19:28;;;;;;;41.88;25.95;;;;;;;;;;5001261;28;20025;-67
2022/03/22 11:22:02;;;;;;;37.20;25.15;;;;;;;;;;5016709;28;20032;-65
2022/03/22 11:24:28;;;;;;;38.63;25.33;;;;;;;;;;5002245;28;20033;-65
2022/03/22 11:26:56;;;;;;;39.13;24.88;;;;;;;;;;5017146;28;21959;-64
2022/03/22 11:29:22;;;;;;;43.67;26.92;;;;;;;;;;5016453;28;20131;-65
2022/03/22 11:34:31;;;;;;;39.80;27.17;;;;;;;;;;5017161;28;20059;-66
2022/03/22 11:36:59;;;;;;;41.45;28.08;;;;;;;;;;5017357;28;20046;-65
2022/03/22 11:42:36;;;;;;;41.40;28.70;;;;;;;;;;5017666;28;20218;-65
2022/03/22 11:45:03;;;;;;;41.17;26.33;;;;;;;;;;5012810;28;20136;-65
2022/03/22 11:47:41;;;;;;;38.33;26.52;;;;;;;;;;5017269;28;20043;-64
2022/03/22 11:50:09;;;;;;;37.80;27.88;;;;;;;;;;5016255;28;20033;-66
2022/03/22 11:52:39;;;;;;;35.90;26.15;;;;;;;;;;5017853;28;20465;-66
2022/03/22 11:55:12;;;;;;;31.75;22.60;;;;;;;;;;5016545;28;20328;-65
2022/03/22 11:57:45;;;;;;;31.15;22.20;;;;;;;;;;5015688;28;20120;-67
2022/03/22 12:00:11;;;;;;;35.25;26.00;;;;;;;;;;4998641;28;20113;-67
2022/03/22 12:02:42;;;;;;;41.30;30.40;;;;;;;;;;5015205;28;20053;-66
2022/03/22 12:05:08;;;;;;;37.55;29.23;;;;;;;;;;5016262;28;20474;-66
2022/03/22 12:07:36;;;;;;;39.40;30.20;;;;;;;;;;5016629;28;20214;-65
2022/03/22 12:10:08;;;;;;;38.10;29.98;;;;;;;;;;4999538;28;20816;-66
2022/03/22 12:12:35;;;;;;;35.55;29.92;;;;;;;;;;5017491;28;20043;-66
2022/03/22 12:15:03;;;;;;;40.45;30.65;;;;;;;;;;5017424;28;20113;-68
2022/03/22 12:17:29;;;;;;;40.92;30.63;;;;;;;;;;5016785;28;20021;-66
2022/03/22 12:19:57;;;;;;;37.75;30.50;;;;;;;;;;4985542;28;20032;-66
2022/03/22 12:22:23;;;;;;;41.65;31.73;;;;;;;;;;5016530;28;20055;-67
2022/03/22 12:24:51;;;;;;;44.05;30.88;;;;;;;;;;5016284;28;20126;-67
2022/03/22 12:27:17;;;;;;;40.95;30.45;;;;;;;;;;5016678;28;20408;-66
2022/03/22 12:29:45;;;;;;;38.83;30.75;;;;;;;;;;4999463;28;20025;-67
2022/03/22 12:32:14;;;;;;;42.58;32.15;;;;;;;;;;5014163;28;20400;-66
2022/03/22 12:34:41;;;;;;;37.72;29.98;;;;;;;;;;5015721;28;20037;-66
2022/03/22 12:37:08;;;;;;;40.70;32.03;;;;;;;;;;5016182;28;20159;-65
2022/03/22 12:39:34;;;;;;;41.63;32.10;;;;;;;;;;4997791;28;20148;-65
2022/03/22 12:41:59;;;;;;;39.75;31.55;;;;;;;;;;4998326;28;20047;-63
2022/03/22 12:44:25;;;;;;;39.05;32.13;;;;;;;;;;5015846;28;20025;-65
2022/03/22 12:46:51;;;;;;;55.95;34.42;;;;;;;;;;5015374;28;20595;-66
2022/03/22 12:49:17;;;;;;;41.22;31.80;;;;;;;;;;5015786;28;20037;-64
2022/03/22 12:51:43;;;;;;;43.58;32.42;;;;;;;;;;5014200;28;20033;-65
2022/03/22 12:54:09;;;;;;;40.78;33.00;;;;;;;;;;5015408;28;20468;-64
2022/03/22 12:56:34;;;;;;;40.65;31.48;;;;;;;;;;4998173;28;20029;-64
2022/03/22 12:59:00;;;;;;;40.90;32.55;;;;;;;;;;5003053;28;20617;-64
2022/03/22 13:01:36;;;;;;;41.42;32.25;;;;;;;;;;5015419;28;20033;-64
2022/03/22 13:04:01;;;;;;;37.85;31.90;;;;;;;;;;5015535;28;20519;-64
2022/03/22 13:06:26;;;;;;;42.30;32.88;;;;;;;;;;5015719;28;20232;-63
2022/03/22 13:11:38;;;;;;;41.67;31.70;;;;;;;;;;5001167;28;22066;-65
2022/03/22 13:16:53;;;;;;;42.63;33.17;;;;;;;;;;5000392;28;21838;-65
2022/03/22 13:19:19;;;;;;;42.50;32.65;;;;;;;;;;5014832;28;20119;-64
2022/03/22 13:21:44;;;;;;;42.13;32.40;;;;;;;;;;5013685;28;20049;-64
2022/03/22 13:24:17;;;;;;;40.55;31.50;;;;;;;;;;5014813;28;20029;-64
2022/03/22 13:26:52;;;;;;;48.33;33.45;;;;;;;;;;4996269;28;20025;-63
2022/03/22 13:29:19;;;;;;;44.00;32.10;;;;;;;;;;5014953;28;20040;-63
2022/03/22 13:31:53;;;;;;;38.90;31.35;;;;;;;;;;4996543;28;20729;-64
2022/03/22 13:34:23;;;;;;;41.08;32.13;;;;;;;;;;5015750;28;20368;-64
2022/03/22 13:36:49;;;;;;;41.10;32.72;;;;;;;;;;4999195;28;20595;-64
2022/03/22 13:39:24;;;;;;;38.65;32.30;;;;;;;;;;5015299;28;20586;-65
2022/03/22 13:42:03;;;;;;;40.88;32.92;;;;;;;;;;5015360;28;20032;-64
2022/03/22 13:44:28;;;;;;;40.90;31.35;;;;;;;;;;4982621;28;20055;-64
2022/03/22 13:46:59;;;;;;;42.00;32.78;;;;;;;;;;5017192;28;20037;-64
2022/03/22 13:49:32;;;;;;;43.22;32.85;;;;;;;;;;4992526;28;20037;-63
2022/03/22 13:51:57;;;;;;;44.10;32.47;;;;;;;;;;5017032;28;20033;-62
2022/03/22 13:54:23;;;;;;;39.22;31.55;;;;;;;;;;5019086;28;22163;-65
2022/03/22 13:56:50;;;;;;;43.00;32.20;;;;;;;;;;5001906;28;20021;-64
2022/03/22 13:59:15;;;;;;;42.03;32.28;;;;;;;;;;4985481;28;20030;-63
2022/03/22 14:01:40;;;;;;;43.20;33.30;;;;;;;;;;5018600;28;20035;-64
2022/03/22 14:04:08;;;;;;;39.67;33.05;;;;;;;;;;5017996;28;22101;-64
2022/03/22 14:06:34;;;;;;;43.08;33.63;;;;;;;;;;4985493;28;20058;-65
2022/03/22 14:08:59;;;;;;;41.35;32.83;;;;;;;;;;5019067;28;20434;-67
2022/03/22 14:11:25;;;;;;;42.38;33.97;;;;;;;;;;5019391;28;20044;-66
2022/03/22 14:13:50;;;;;;;41.90;33.00;;;;;;;;;;5019325;28;20280;-66
2022/03/22 14:16:15;;;;;;;47.60;33.42;;;;;;;;;;5001731;28;22634;-66
2022/03/22 14:18:41;;;;;;;41.38;32.47;;;;;;;;;;5019736;28;20091;-66
2022/03/22 14:21:09;;;;;;;44.05;34.80;;;;;;;;;;5003198;28;20020;-66
2022/03/22 14:23:34;;;;;;;46.63;33.15;;;;;;;;;;5001105;28;20041;-66
2022/03/22 14:26:03;;;;;;;47.03;34.33;;;;;;;;;;5019015;28;20088;-66
2022/03/22 14:28:28;;;;;;;44.78;33.97;;;;;;;;;;5007471;28;20365;-65
2022/03/22 14:30:54;;;;;;;44.75;33.95;;;;;;;;;;5019456;28;20029;-66
2022/03/22 14:33:19;;;;;;;46.25;34.70;;;;;;;;;;5018865;28;20033;-64
2022/03/22 14:35:56;;;;;;;43.30;33.10;;;;;;;;;;5018640;28;20028;-64
2022/03/22 14:38:21;;;;;;;46.08;33.50;;;;;;;;;;5005232;28;20103;-64
2022/03/22 14:40:48;;;;;;;41.38;33.28;;;;;;;;;;5018586;28;20021;-65
2022/03/22 14:43:14;;;;;;;43.53;33.58;;;;;;;;;;5017793;28;20523;-65
2022/03/22 14:45:43;;;;;;;41.83;31.85;;;;;;;;;;5018648;28;20111;-64
2022/03/22 14:48:09;;;;;;;43.30;33.10;;;;;;;;;;5018837;28;20060;-64
2022/03/22 14:50:36;;;;;;;41.92;32.65;;;;;;;;;;5018737;28;20655;-64
2022/03/22 14:55:48;;;;;;;40.45;31.25;;;;;;;;;;5018263;28;20151;-65
2022/03/22 15:00:57;;;;;;;45.13;31.90;;;;;;;;;;5018634;28;20447;-64
2022/03/22 15:03:26;;;;;;;41.35;31.67;;;;;;;;;;5016384;28;20325;-64